Latest Coastal Weather Observations for Double Island Point

IDQ60701

Issued at 5:42 pm EST Sunday 15 December 2019 (issued every 10 minutes, with the page automatically refreshed every 10 minutes)

About coastal observations | Map of coastal stations | Coastal observations for QLD | Marine services | Other Formats
Station Details ID: 040068 Name: DOUBLE ISLAND POINT LIGHTHOUSE Lat: -25.93 Lon: 153.19 Height: 95.64 m
Data from the previous 72 hours. | See also: Recent months at Double Island Point
Date/Time
EST
Wind Sea
Height
m
Swell Vis
km
Cloud Weather Temp
°C
Press
hPa
Rain since
9am
mm
Dir  Spd
kts
Gust
kts
Height
m
Period
s
Dir
15/05:30pm N 15 25 - - - - - - - 25.8 1007.3 0.0
15/05:11pm N 19 29 - - - - - - - 26.1 1007.3 0.0
15/05:00pm NNE 21 28 - - - - - - - 26.1 1007.1 0.0
15/04:30pm NNE 23 27 - - - - - - - 26.6 1007.0 0.0
15/04:00pm NNE 23 26 - - - - - - - 27.2 1006.9 0.0
15/03:30pm NNE 23 28 - - - - - - - 28.0 1006.8 0.0
15/03:00pm NNE 21 25 - - - - - - - 28.0 1007.1 0.0
15/02:30pm NNE 19 23 - - - - - - - 28.9 1007.7 0.0
15/02:00pm NNE 19 23 - - - - - - - 28.8 1007.8 0.0
15/01:30pm NNE 19 23 - - - - - - - 29.5 1008.0 0.0
15/01:00pm NNE 17 21 - - - - - - - 30.1 1008.5 0.0
15/12:30pm NNE 18 22 - - - - - - - 29.9 1008.8 0.0
15/12:00pm NNE 17 20 - - - - - - - 29.7 1009.2 0.0
15/11:30am NNE 17 21 - - - - - - - 29.3 1009.4 0.0
15/11:00am NNE 13 19 - - - - - - - 29.3 1009.8 0.0
15/10:30am N 12 17 - - - - - - - 28.4 1010.1 0.0
15/10:00am NNE 10 15 - - - - - - - 28.5 1010.3 0.0
15/09:30am N 6 13 - - - - - - - 28.1 1010.5 0.0
15/09:00am NNE 5 11 - - - - - - - 27.7 1010.9 0.0
15/08:30am N 7 11 - - - - - - - 27.2 1010.9 0.0
15/08:00am N 4 11 - - - - - - - 26.1 1010.9 0.0
15/07:30am N 2 4 - - - - - - - 26.2 1010.8 0.0
15/07:00am N 2 4 - - - - - - - 25.8 1010.6 0.0
15/06:30am N 4 6 - - - - - - - 25.0 1010.3 0.0
15/06:00am N 2 6 - - - - - - - 24.3 1009.9 0.0
15/05:30am N 1 4 - - - - - - - 23.8 1009.6 0.0
15/05:00am N 2 5 - - - - - - - 23.6 1009.3 0.0
15/04:30am N 2 4 - - - - - - - 23.5 1009.0 0.0
15/04:00am N 3 4 - - - - - - - 23.4 1008.8 0.0
15/03:30am NNE 4 6 - - - - - - - 23.3 1008.9 0.0
15/03:00am N 4 6 - - - - - - - 23.4 1008.9 0.0
15/02:30am N 4 6 - - - - - - - 23.6 1009.0 0.0
15/02:00am N 4 6 - - - - - - - 23.7 1009.2 0.0
15/01:30am N 4 6 - - - - - - - 23.7 1009.4 0.0
15/01:00am N 5 7 - - - - - - - 23.8 1009.4 0.0
15/12:30am N 4 6 - - - - - - - 23.7 1009.4 0.0
15/12:00am N 3 5 - - - - - - - 23.8 1009.5 0.0
 
Date/Time
EST
Wind Sea
Height
m
Swell Vis
km
Cloud Weather Temp
°C
Press
hPa
Rain since
9am
mm
Dir  Spd
kts
Gust
kts
Height
m
Period
s
Dir
14/11:30pm N 5 6 - - - - - - - 23.8 1009.9 0.0
14/11:00pm N 4 5 - - - - - - - 23.8 1009.9 0.0
14/10:30pm N 4 5 - - - - - - - 24.1 1009.8 0.0
14/10:00pm N 5 7 - - - - - - - 24.0 1009.7 0.0
14/09:30pm N 4 6 - - - - - - - 24.2 1009.7 0.0
14/09:00pm N 6 11 - - - - - - - 24.3 1009.4 0.0
14/08:30pm N 7 13 - - - - - - - 24.6 1008.9 0.0
14/08:00pm N 9 17 - - - - - - - 24.6 1008.7 0.0
14/07:30pm N 13 21 - - - - - - - 24.6 1008.4 0.0
14/07:00pm NNE 22 28 - - - - - - - 24.8 1007.8 0.0
14/06:30pm NNE 25 29 - - - - - - - 25.0 1007.3 0.0
14/06:00pm NNE 22 25 - - - - - - - 25.5 1007.4 0.0
14/05:30pm NNE 22 26 - - - - - - - 25.8 1007.1 0.0
14/05:00pm NNE 23 27 - - - - - - - 26.8 1006.9 0.0
14/04:30pm NNE 20 24 - - - - - - - 27.5 1007.1 0.0
14/04:00pm NNE 21 24 - - - - - - - 27.6 1007.1 0.0
14/03:30pm NNE 19 23 - - - - - - - 28.5 1007.2 0.0
14/03:00pm NNE 17 22 - - - - - - - 29.1 1007.3 0.0
14/02:30pm NNE 18 22 - - - - - - - 29.7 1007.7 0.0
14/02:00pm NNE 15 17 - - - - - - - 30.3 1008.1 0.0
14/01:30pm NNE 13 16 - - - - - - - 30.1 1008.6 0.0
14/01:00pm NNE 13 16 - - - - - - - 30.6 1008.9 0.0
14/12:30pm NE 10 14 - - - - - - - 30.5 1009.1 0.0
14/12:00pm NNE 11 15 - - - - - - - 30.2 1009.4 0.0
14/11:30am NNE 10 12 - - - - - - - 30.5 1009.9 0.0
14/11:00am NNE 8 11 - - - - - - - 29.7 1010.5 0.0
14/10:30am N 4 9 - - - - - - - 28.6 1010.8 0.0
14/10:00am N 4 6 - - - - - - - 27.8 1010.9 0.0
14/09:30am N 4 7 - - - - - - - 27.7 1011.2 0.0
14/09:00am N 4 6 - - - - - - Recent precip. 27.3 1011.4 11.2
14/08:30am NNW 5 7 - - - - - - - 27.6 1011.4 11.2
14/08:00am NNW 7 10 - - - - - - - 26.5 1011.4 11.0
14/07:30am N 5 11 - - - - - - - 25.1 1011.4 11.0
14/07:00am NNW 8 10 - - - - - - - 24.5 1011.3 11.0
14/06:30am N 5 8 - - - - - - - 23.5 1010.9 10.8
14/06:00am N 4 7 - - - - - - - 22.4 1010.7 10.8
14/05:30am N 4 7 - - - - - - - 22.1 1010.6 10.8
14/05:00am N 1 4 - - - - - - - 21.9 1010.2 10.8
14/04:30am N 1 3 - - - - - - - 21.5 1010.1 10.8
14/04:00am N 4 6 - - - - - - - 21.5 1009.9 10.8
14/03:30am N 2 4 - - - - - - - 21.3 1009.8 10.8
14/03:00am N 3 7 - - - - - - - 21.3 1010.0 10.8
14/02:30am N 5 12 - - - - - - - 21.3 1010.1 10.8
14/02:00am NNE 11 17 - - - - - - - 21.2 1010.1 10.8
14/01:30am NNE 11 14 - - - - - - - 21.2 1010.3 10.8
14/01:00am NNW 5 9 - - - - - - - 21.2 1010.5 10.8
14/12:30am NNW 6 9 - - - - - - - 21.0 1010.9 10.8
14/12:00am NNW 11 13 - - - - - - - 21.1 1010.7 10.8
 
Date/Time
EST
Wind Sea
Height
m
Swell Vis
km
Cloud Weather Temp
°C
Press
hPa
Rain since
9am
mm
Dir  Spd
kts
Gust
kts
Height
m
Period
s
Dir
13/11:30pm NW 9 13 - - - - - - - 21.1 1010.7 10.8
13/11:00pm WNW 10 12 - - - - - - - 20.9 1011.1 10.8
13/10:30pm WNW 5 8 - - - - - - - 21.1 1011.3 10.8
13/10:00pm W 7 11 - - - - - - - 21.4 1011.6 10.8
13/09:30pm WNW 10 14 - - - - - - - 21.6 1011.1 10.8
13/09:00pm NNE 5 8 - - - - - - - 21.5 1011.1 10.8
13/08:30pm NNE 6 11 - - - - - - - 21.4 1011.4 10.8
13/08:00pm NNE 4 7 - - - - - - - 21.2 1011.5 10.8
13/07:30pm N 2 4 - - - - - - - 21.8 1011.0 10.8
13/07:00pm N 4 7 - - - - - - - 21.8 1010.2 10.8
13/06:30pm N 7 13 - - - - - - - 22.0 1009.3 10.8
13/06:00pm N 8 14 - - - - - - - 22.6 1009.1 10.8
13/05:30pm NNW 4 10 - - - - - - - 23.3 1008.3 10.8
13/05:05pm NNE 17 27 - - - - - - - 22.7 1007.4 10.8
13/05:00pm NNW 13 27 - - - - - - - 22.3 1006.8 10.8
13/04:34pm NW 12 35 - - - - - - - 22.2 1007.1 10.8
13/04:30pm N 17 35 - - - - - - - 22.5 1008.1 10.8
13/04:28pm N 21 35 - - - - - - - 22.4 1008.1 10.8
13/04:01pm NNE 25 35 - - - - - - - 22.2 1006.4 10.8
13/04:00pm NNE 26 35 - - - - - - - 22.3 1006.4 10.8
13/03:43pm NE 13 31 - - - - - - - 22.6 1007.4 8.8
13/03:30pm NE 11 18 - - - - - - - 22.8 1008.7 6.2
13/03:21pm ENE 18 27 - - - - - - - 23.2 1008.7 5.2
13/03:17pm E 22 27 - - - - - - - 23.4 1008.4 3.8
13/03:10pm ENE 21 27 - - - - - - - 24.0 1008.7 0.6
13/03:00pm NE 21 29 - - - - - - - 24.5 1007.4 0.0
13/02:30pm NE 16 22 - - - - - - - 25.9 1008.5 0.0
13/02:00pm NNE 23 29 - - - - - - - 26.9 1008.0 0.0
13/01:30pm NNE 21 27 - - - - - - - 29.2 1008.9 0.0
13/01:00pm NNE 18 22 - - - - - - - 27.9 1009.4 0.0
13/12:30pm NNE 23 27 - - - - - - - 29.1 1009.1 0.0
13/12:00pm NNE 22 25 - - - - - - - 28.9 1009.3 0.0
13/11:30am NNE 19 24 - - - - - - - 28.3 1009.9 0.0
13/11:00am NNE 17 22 - - - - - - - 28.0 1010.4 0.0
13/10:30am NNE 16 20 - - - - - - - 28.7 1010.9 0.0
13/10:00am NNE 17 20 - - - - - - - 26.7 1011.2 0.0
13/09:30am NNE 16 20 - - - - - - - 27.6 1011.0 0.0
13/09:00am NNE 17 20 - - - - - - - 27.9 1010.6 0.0
13/08:30am NNE 12 16 - - - - - - - 26.5 1011.1 0.0
13/08:00am N 8 15 - - - - - - - 25.7 1011.4 0.0
13/07:30am N 6 11 - - - - - - - 25.9 1011.3 0.0
13/07:00am N 3 5 - - - - - - - 25.5 1011.5 0.0
13/06:30am N 3 5 - - - - - - - 24.9 1011.2 0.0
13/06:00am N 3 6 - - - - - - - 24.2 1010.4 0.0
13/05:30am N 4 8 - - - - - - - 23.8 1010.2 0.0
13/05:00am N 3 6 - - - - - - - 23.6 1010.1 0.0
13/04:30am N 4 7 - - - - - - - 23.7 1009.8 0.0
13/04:00am N 4 6 - - - - - - - 23.7 1009.5 0.0
13/03:30am NNW 3 5 - - - - - - - 23.5 1009.5 0.0
13/03:00am NNW 3 5 - - - - - - - 23.6 1009.6 0.0
13/02:30am NNE 4 5 - - - - - - - 23.6 1009.3 0.0
13/02:00am NNE 3 6 - - - - - - - 23.6 1009.7 0.0
13/01:30am NNE 3 5 - - - - - - - 23.7 1010.1 0.0
13/01:00am NNE 3 5 - - - - - - - 23.8 1010.5 0.0
13/12:30am NNE 3 5 - - - - - - - 23.9 1011.1 0.0
13/12:00am NNE 4 6 - - - - - - - 23.8 1011.1 0.0
 
Date/Time
EST
Wind Sea
Height
m
Swell Vis
km
Cloud Weather Temp
°C
Press
hPa
Rain since
9am
mm
Dir  Spd
kts
Gust
kts
Height
m
Period
s
Dir
12/11:30pm NNE 4 6 - - - - - - - 23.8 1011.4 0.0
12/11:00pm NNE 4 6 - - - - - - - 24.0 1011.2 0.0
12/10:30pm NNE 4 6 - - - - - - - 24.0 1011.4 0.0
12/10:00pm NNE 4 6 - - - - - - - 24.2 1011.3 0.0
12/09:30pm N 6 9 - - - - - - - 24.4 1010.9 0.0
12/09:00pm N 7 13 - - - - - - - 24.6 1010.8 0.0
12/08:30pm NNE 6 10 - - - - - - - 24.6 1010.5 0.0
12/08:00pm NNE 7 12 - - - - - - - 25.0 1010.7 0.0
12/07:30pm N 15 25 - - - - - - - 24.9 1009.9 0.0
12/07:14pm N 15 25 - - - - - - - 25.0 1009.9 0.0
12/07:00pm N 15 24 - - - - - - - 25.1 1009.9 0.0
12/06:41pm NNE 18 29 - - - - - - - 25.2 1009.6 0.0
12/06:30pm NNE 21 28 - - - - - - - 25.3 1009.5 0.0
12/06:00pm NNE 23 29 - - - - - - - 25.3 1009.3 0.0

Other formats

Comma delimited format used in spreadsheet applications
http://www.bom.gov.au/fwo/IDQ60701/IDQ60701.94584.axf

JavaScript Object Notation format (JSON) in row-major order
http://www.bom.gov.au/fwo/IDQ60701/IDQ60701.94584.json

Data quality

Most of these data are generated automatically and are frequently updated. Quality checks on data are not normally performed. It is possible for incorrect values to appear. Refer to information at About Latest Weather Observations and please check the disclaimer before using these data.